sensor_id;sensor_type;location;lat;lon;timestamp;temperature;humidity
6756;DHT22;3415;51.148;7.014;2022-10-22T05:02:32;13.70;1.00
6756;DHT22;3415;51.148;7.014;2022-10-22T05:04:59;13.70;1.00
6756;DHT22;3415;51.148;7.014;2022-10-22T05:07:25;13.80;1.00
6756;DHT22;3415;51.148;7.014;2022-10-22T05:09:52;13.70;1.00
6756;DHT22;3415;51.148;7.014;2022-10-22T05:12:19;13.70;1.00
6756;DHT22;3415;51.148;7.014;2022-10-22T05:14:46;13.60;1.00
6756;DHT22;3415;51.148;7.014;2022-10-22T05:17:13;13.60;1.00
6756;DHT22;3415;51.148;7.014;2022-10-22T05:19:41;13.50;1.00
6756;DHT22;3415;51.148;7.014;2022-10-22T05:22:08;13.50;1.00
6756;DHT22;3415;51.148;7.014;2022-10-22T05:24:35;13.40;1.00
6756;DHT22;3415;51.148;7.014;2022-10-22T05:27:02;13.40;1.00
6756;DHT22;3415;51.148;7.014;2022-10-22T05:29:29;13.40;1.00
6756;DHT22;3415;51.148;7.014;2022-10-22T05:31:56;13.40;1.00
6756;DHT22;3415;51.148;7.014;2022-10-22T05:34:23;13.30;1.00
6756;DHT22;3415;51.148;7.014;2022-10-22T05:36:51;13.30;1.00
6756;DHT22;3415;51.148;7.014;2022-10-22T05:39:18;13.40;1.00
6756;DHT22;3415;51.148;7.014;2022-10-22T05:41:44;13.30;1.00
6756;DHT22;3415;51.148;7.014;2022-10-22T05:44:12;13.50;1.00
6756;DHT22;3415;51.148;7.014;2022-10-22T05:46:39;13.20;1.00
6756;DHT22;3415;51.148;7.014;2022-10-22T05:49:06;13.20;1.00
6756;DHT22;3415;51.148;7.014;2022-10-22T05:51:35;13.20;1.00
6756;DHT22;3415;51.148;7.014;2022-10-22T05:54:05;13.30;1.00
6756;DHT22;3415;51.148;7.014;2022-10-22T05:56:32;13.20;1.00
6756;DHT22;3415;51.148;7.014;2022-10-22T05:59:00;13.20;1.00
6756;DHT22;3415;51.148;7.014;2022-10-22T06:01:28;14.90;1.00
6756;DHT22;3415;51.148;7.014;2022-10-22T06:03:56;13.30;1.00
6756;DHT22;3415;51.148;7.014;2022-10-22T06:06:27;13.30;1.00
6756;DHT22;3415;51.148;7.014;2022-10-22T06:08:55;13.30;1.00
6756;DHT22;3415;51.148;7.014;2022-10-22T06:11:26;13.40;1.00
6756;DHT22;3415;51.148;7.014;2022-10-22T06:13:53;13.30;1.00
6756;DHT22;3415;51.148;7.014;2022-10-22T06:16:20;13.40;1.00
6756;DHT22;3415;51.148;7.014;2022-10-22T06:18:47;13.50;1.00
6756;DHT22;3415;51.148;7.014;2022-10-22T06:21:15;13.50;1.00
6756;DHT22;3415;51.148;7.014;2022-10-22T06:23:42;13.60;1.00
6756;DHT22;3415;51.148;7.014;2022-10-22T06:26:09;13.70;1.00
6756;DHT22;3415;51.148;7.014;2022-10-22T06:28:38;13.80;1.00
6756;DHT22;3415;51.148;7.014;2022-10-22T06:31:05;13.90;1.00
6756;DHT22;3415;51.148;7.014;2022-10-22T06:33:32;13.90;1.00
6756;DHT22;3415;51.148;7.014;2022-10-22T06:36:07;14.00;1.00
6756;DHT22;3415;51.148;7.014;2022-10-22T06:38:34;14.00;1.00
6756;DHT22;3415;51.148;7.014;2022-10-22T06:41:02;14.00;1.00
6756;DHT22;3415;51.148;7.014;2022-10-22T06:43:29;14.10;1.00
6756;DHT22;3415;51.148;7.014;2022-10-22T06:45:59;14.10;1.00
6756;DHT22;3415;51.148;7.014;2022-10-22T06:48:26;14.20;1.00
6756;DHT22;3415;51.148;7.014;2022-10-22T06:50:53;14.30;1.00
6756;DHT22;3415;51.148;7.014;2022-10-22T06:53:20;14.30;1.00
6756;DHT22;3415;51.148;7.014;2022-10-22T06:55:46;14.30;1.00
6756;DHT22;3415;51.148;7.014;2022-10-22T06:58:13;14.30;1.00
6756;DHT22;3415;51.148;7.014;2022-10-22T07:00:40;14.40;99.90
6756;DHT22;3415;51.148;7.014;2022-10-22T07:03:11;14.40;99.90
6756;DHT22;3415;51.148;7.014;2022-10-22T07:05:38;14.30;99.90
6756;DHT22;3415;51.148;7.014;2022-10-22T07:08:05;14.30;99.90
6756;DHT22;3415;51.148;7.014;2022-10-22T07:10:32;14.30;99.90
6756;DHT22;3415;51.148;7.014;2022-10-22T07:12:58;14.20;99.90
6756;DHT22;3415;51.148;7.014;2022-10-22T07:15:25;14.20;99.90
6756;DHT22;3415;51.148;7.014;2022-10-22T07:17:52;14.20;99.90
6756;DHT22;3415;51.148;7.014;2022-10-22T07:20:20;14.20;99.90
6756;DHT22;3415;51.148;7.014;2022-10-22T07:22:47;14.30;99.90
6756;DHT22;3415;51.148;7.014;2022-10-22T07:25:14;14.40;99.90
6756;DHT22;3415;51.148;7.014;2022-10-22T07:27:41;14.60;99.90
6756;DHT22;3415;51.148;7.014;2022-10-22T07:30:08;15.00;99.90
6756;DHT22;3415;51.148;7.014;2022-10-22T07:32:35;15.00;99.90
6756;DHT22;3415;51.148;7.014;2022-10-22T07:35:03;15.30;99.90
6756;DHT22;3415;51.148;7.014;2022-10-22T07:37:31;15.50;99.90
6756;DHT22;3415;51.148;7.014;2022-10-22T07:39:58;15.80;93.20
6756;DHT22;3415;51.148;7.014;2022-10-22T07:42:25;16.00;48.70
6756;DHT22;3415;51.148;7.014;2022-10-22T07:44:51;16.40;6.20
6756;DHT22;3415;51.148;7.014;2022-10-22T07:47:18;16.40;6.80
6756;DHT22;3415;51.148;7.014;2022-10-22T07:49:45;16.80;1.00
6756;DHT22;3415;51.148;7.014;2022-10-22T07:52:12;17.60;1.00
6756;DHT22;3415;51.148;7.014;2022-10-22T07:54:40;18.10;1.00
6756;DHT22;3415;51.148;7.014;2022-10-22T07:57:06;18.70;1.00
6756;DHT22;3415;51.148;7.014;2022-10-22T07:59:33;18.50;1.00
6756;DHT22;3415;51.148;7.014;2022-10-22T08:02:00;17.80;1.00
6756;DHT22;3415;51.148;7.014;2022-10-22T08:04:27;17.30;1.00
6756;DHT22;3415;51.148;7.014;2022-10-22T08:06:54;17.20;1.00
6756;DHT22;3415;51.148;7.014;2022-10-22T08:09:21;17.30;1.00
6756;DHT22;3415;51.148;7.014;2022-10-22T08:11:49;17.20;1.00
6756;DHT22;3415;51.148;7.014;2022-10-22T08:14:16;17.10;1.00
6756;DHT22;3415;51.148;7.014;2022-10-22T08:16:43;17.00;1.00
6756;DHT22;3415;51.148;7.014;2022-10-22T08:19:10;16.60;1.00
6756;DHT22;3415;51.148;7.014;2022-10-22T08:21:38;16.40;1.00
6756;DHT22;3415;51.148;7.014;2022-10-22T08:24:05;16.00;1.00
6756;DHT22;3415;51.148;7.014;2022-10-22T08:26:32;16.00;1.00
6756;DHT22;3415;51.148;7.014;2022-10-22T08:29:00;15.90;1.00
6756;DHT22;3415;51.148;7.014;2022-10-22T08:31:27;15.90;1.00
6756;DHT22;3415;51.148;7.014;2022-10-22T08:33:54;15.80;1.00
6756;DHT22;3415;51.148;7.014;2022-10-22T08:36:21;15.80;1.00
6756;DHT22;3415;51.148;7.014;2022-10-22T08:38:47;15.70;1.00
6756;DHT22;3415;51.148;7.014;2022-10-22T08:41:16;15.70;1.00
6756;DHT22;3415;51.148;7.014;2022-10-22T08:44:00;15.70;1.00
6756;DHT22;3415;51.148;7.014;2022-10-22T08:46:44;15.60;1.00
6756;DHT22;3415;51.148;7.014;2022-10-22T08:49:18;15.60;1.00
6756;DHT22;3415;51.148;7.014;2022-10-22T08:51:46;15.70;1.00
6756;DHT22;3415;51.148;7.014;2022-10-22T08:54:17;15.80;1.00
6756;DHT22;3415;51.148;7.014;2022-10-22T08:56:57;15.70;1.00
6756;DHT22;3415;51.148;7.014;2022-10-22T08:59:33;15.80;1.00
6756;DHT22;3415;51.148;7.014;2022-10-22T09:02:07;15.70;1.00
6756;DHT22;3415;51.148;7.014;2022-10-22T09:04:44;15.70;1.00
6756;DHT22;3415;51.148;7.014;2022-10-22T09:07:14;15.80;1.00
6756;DHT22;3415;51.148;7.014;2022-10-22T09:09:44;15.80;1.00
6756;DHT22;3415;51.148;7.014;2022-10-22T09:12:15;15.90;1.00
6756;DHT22;3415;51.148;7.014;2022-10-22T09:14:44;15.90;1.00
6756;DHT22;3415;51.148;7.014;2022-10-22T09:17:13;16.00;1.00
6756;DHT22;3415;51.148;7.014;2022-10-22T09:19:52;16.10;1.00
6756;DHT22;3415;51.148;7.014;2022-10-22T09:22:28;16.20;1.00
6756;DHT22;3415;51.148;7.014;2022-10-22T09:24:58;16.30;1.00
6756;DHT22;3415;51.148;7.014;2022-10-22T09:27:29;16.30;1.00
6756;DHT22;3415;51.148;7.014;2022-10-22T09:29:59;16.50;1.00
6756;DHT22;3415;51.148;7.014;2022-10-22T09:32:26;16.50;1.00
6756;DHT22;3415;51.148;7.014;2022-10-22T09:34:55;16.50;1.00
6756;DHT22;3415;51.148;7.014;2022-10-22T09:37:26;16.50;1.00
6756;DHT22;3415;51.148;7.014;2022-10-22T09:39:54;16.50;1.00
6756;DHT22;3415;51.148;7.014;2022-10-22T09:42:21;16.40;1.00
6756;DHT22;3415;51.148;7.014;2022-10-22T09:44:51;16.40;1.00
6756;DHT22;3415;51.148;7.014;2022-10-22T09:47:32;16.40;1.00
6756;DHT22;3415;51.148;7.014;2022-10-22T09:50:11;16.40;1.00
6756;DHT22;3415;51.148;7.014;2022-10-22T09:52:44;16.40;1.00
6756;DHT22;3415;51.148;7.014;2022-10-22T09:55:13;16.40;1.00
6756;DHT22;3415;51.148;7.014;2022-10-22T09:57:41;16.40;1.00
6756;DHT22;3415;51.148;7.014;2022-10-22T10:00:10;16.40;1.00
6756;DHT22;3415;51.148;7.014;2022-10-22T10:02:40;16.40;1.00
6756;DHT22;3415;51.148;7.014;2022-10-22T10:05:18;16.40;1.00
6756;DHT22;3415;51.148;7.014;2022-10-22T10:07:45;16.50;1.00
6756;DHT22;3415;51.148;7.014;2022-10-22T10:10:18;16.50;1.00
6756;DHT22;3415;51.148;7.014;2022-10-22T10:12:53;16.50;1.00
6756;DHT22;3415;51.148;7.014;2022-10-22T10:15:27;16.60;1.00
6756;DHT22;3415;51.148;7.014;2022-10-22T10:18:07;16.50;1.00
6756;DHT22;3415;51.148;7.014;2022-10-22T10:20:40;16.50;1.00
6756;DHT22;3415;51.148;7.014;2022-10-22T10:23:13;16.50;1.00
6756;DHT22;3415;51.148;7.014;2022-10-22T10:25:50;16.40;1.00
6756;DHT22;3415;51.148;7.014;2022-10-22T10:28:38;16.40;1.00
6756;DHT22;3415;51.148;7.014;2022-10-22T10:31:16;16.30;1.00
6756;DHT22;3415;51.148;7.014;2022-10-22T10:33:52;16.30;1.00
6756;DHT22;3415;51.148;7.014;2022-10-22T10:36:30;16.30;1.00
6756;DHT22;3415;51.148;7.014;2022-10-22T10:39:05;16.40;1.00
6756;DHT22;3415;51.148;7.014;2022-10-22T10:41:43;16.30;1.00
6756;DHT22;3415;51.148;7.014;2022-10-22T10:44:34;16.30;1.00
6756;DHT22;3415;51.148;7.014;2022-10-22T10:47:12;16.30;1.00
6756;DHT22;3415;51.148;7.014;2022-10-22T10:49:45;16.40;1.00
6756;DHT22;3415;51.148;7.014;2022-10-22T10:52:17;16.30;1.00
6756;DHT22;3415;51.148;7.014;2022-10-22T10:54:51;16.30;1.00
6756;DHT22;3415;51.148;7.014;2022-10-22T10:57:27;16.40;1.00
6756;DHT22;3415;51.148;7.014;2022-10-22T11:00:04;16.40;1.00
6756;DHT22;3415;51.148;7.014;2022-10-22T11:05:43;16.40;1.00
6756;DHT22;3415;51.148;7.014;2022-10-22T11:08:14;16.30;1.00
6756;DHT22;3415;51.148;7.014;2022-10-22T11:10:45;16.40;1.00
6756;DHT22;3415;51.148;7.014;2022-10-22T11:13:18;16.40;1.00
6756;DHT22;3415;51.148;7.014;2022-10-22T11:15:51;16.40;1.00
6756;DHT22;3415;51.148;7.014;2022-10-22T11:18:22;16.30;1.00
6756;DHT22;3415;51.148;7.014;2022-10-22T11:21:00;16.30;1.00
6756;DHT22;3415;51.148;7.014;2022-10-22T11:23:33;16.40;1.00
6756;DHT22;3415;51.148;7.014;2022-10-22T11:26:03;16.30;1.00
6756;DHT22;3415;51.148;7.014;2022-10-22T11:28:40;16.30;1.00
6756;DHT22;3415;51.148;7.014;2022-10-22T11:31:12;16.20;1.00
6756;DHT22;3415;51.148;7.014;2022-10-22T11:33:45;16.30;1.00
6756;DHT22;3415;51.148;7.014;2022-10-22T11:36:17;16.30;1.00
6756;DHT22;3415;51.148;7.014;2022-10-22T11:38:46;16.20;1.00
6756;DHT22;3415;51.148;7.014;2022-10-22T11:41:16;16.20;1.00
6756;DHT22;3415;51.148;7.014;2022-10-22T11:43:57;16.10;1.00
6756;DHT22;3415;51.148;7.014;2022-10-22T11:46:28;16.10;1.00
6756;DHT22;3415;51.148;7.014;2022-10-22T11:49:04;16.10;1.00
6756;DHT22;3415;51.148;7.014;2022-10-22T11:51:35;16.30;1.00
6756;DHT22;3415;51.148;7.014;2022-10-22T11:54:19;16.20;1.00
6756;DHT22;3415;51.148;7.014;2022-10-22T11:56:57;16.20;1.00
6756;DHT22;3415;51.148;7.014;2022-10-22T11:59:37;16.20;1.00
6756;DHT22;3415;51.148;7.014;2022-10-22T12:02:40;16.30;1.00
6756;DHT22;3415;51.148;7.014;2022-10-22T12:05:41;16.40;1.00
6756;DHT22;3415;51.148;7.014;2022-10-22T12:08:22;16.30;1.00
6756;DHT22;3415;51.148;7.014;2022-10-22T12:11:14;16.30;1.00
6756;DHT22;3415;51.148;7.014;2022-10-22T12:13:57;16.30;1.00
6756;DHT22;3415;51.148;7.014;2022-10-22T12:16:39;14.00;1.00
6756;DHT22;3415;51.148;7.014;2022-10-22T12:19:16;16.60;1.00
6756;DHT22;3415;51.148;7.014;2022-10-22T12:21:46;16.60;1.00
6756;DHT22;3415;51.148;7.014;2022-10-22T12:24:18;16.70;1.00
6756;DHT22;3415;51.148;7.014;2022-10-22T12:26:45;17.00;1.00
6756;DHT22;3415;51.148;7.014;2022-10-22T12:29:15;16.90;1.00
6756;DHT22;3415;51.148;7.014;2022-10-22T12:31:43;17.10;1.00
6756;DHT22;3415;51.148;7.014;2022-10-22T12:34:15;17.20;1.00
6756;DHT22;3415;51.148;7.014;2022-10-22T12:36:43;17.40;1.00
6756;DHT22;3415;51.148;7.014;2022-10-22T12:39:14;17.40;1.00
6756;DHT22;3415;51.148;7.014;2022-10-22T12:41:43;17.60;1.00
6756;DHT22;3415;51.148;7.014;2022-10-22T12:44:12;17.70;1.00
6756;DHT22;3415;51.148;7.014;2022-10-22T12:46:40;17.40;1.00
6756;DHT22;3415;51.148;7.014;2022-10-22T12:49:13;17.50;1.00
6756;DHT22;3415;51.148;7.014;2022-10-22T12:51:40;17.70;1.00
6756;DHT22;3415;51.148;7.014;2022-10-22T12:54:12;17.60;1.00
6756;DHT22;3415;51.148;7.014;2022-10-22T12:56:40;17.90;1.00
6756;DHT22;3415;51.148;7.014;2022-10-22T12:59:15;17.80;1.00
6756;DHT22;3415;51.148;7.014;2022-10-22T13:01:43;17.80;1.00
6756;DHT22;3415;51.148;7.014;2022-10-22T13:04:31;17.80;1.00
6756;DHT22;3415;51.148;7.014;2022-10-22T13:07:16;17.70;1.00
6756;DHT22;3415;51.148;7.014;2022-10-22T13:09:45;17.60;1.00
6756;DHT22;3415;51.148;7.014;2022-10-22T13:12:13;17.70;1.00
6756;DHT22;3415;51.148;7.014;2022-10-22T13:14:45;17.70;1.00
6756;DHT22;3415;51.148;7.014;2022-10-22T13:17:14;17.60;1.00
6756;DHT22;3415;51.148;7.014;2022-10-22T13:19:45;18.00;1.00
6756;DHT22;3415;51.148;7.014;2022-10-22T13:22:36;18.30;1.00
6756;DHT22;3415;51.148;7.014;2022-10-22T13:25:19;18.20;1.00
6756;DHT22;3415;51.148;7.014;2022-10-22T13:27:47;18.30;1.00
6756;DHT22;3415;51.148;7.014;2022-10-22T13:30:21;18.20;1.00
6756;DHT22;3415;51.148;7.014;2022-10-22T13:32:49;18.30;1.00
6756;DHT22;3415;51.148;7.014;2022-10-22T13:35:20;18.10;1.00
6756;DHT22;3415;51.148;7.014;2022-10-22T13:37:49;18.00;1.00
6756;DHT22;3415;51.148;7.014;2022-10-22T13:40:16;17.80;1.00
6756;DHT22;3415;51.148;7.014;2022-10-22T13:42:42;17.90;1.00
6756;DHT22;3415;51.148;7.014;2022-10-22T13:45:10;17.80;1.00
6756;DHT22;3415;51.148;7.014;2022-10-22T13:47:38;17.80;1.00
6756;DHT22;3415;51.148;7.014;2022-10-22T13:50:12;17.90;1.00
6756;DHT22;3415;51.148;7.014;2022-10-22T13:52:41;17.80;1.00
6756;DHT22;3415;51.148;7.014;2022-10-22T13:55:17;17.80;1.00
6756;DHT22;3415;51.148;7.014;2022-10-22T13:57:45;17.90;1.00
6756;DHT22;3415;51.148;7.014;2022-10-22T14:00:14;18.00;1.00
6756;DHT22;3415;51.148;7.014;2022-10-22T14:02:43;18.30;1.00
6756;DHT22;3415;51.148;7.014;2022-10-22T14:05:10;18.10;1.00
6756;DHT22;3415;51.148;7.014;2022-10-22T14:07:38;18.20;1.00
6756;DHT22;3415;51.148;7.014;2022-10-22T14:10:13;18.20;1.00
6756;DHT22;3415;51.148;7.014;2022-10-22T14:12:40;18.20;1.00
6756;DHT22;3415;51.148;7.014;2022-10-22T14:15:09;18.10;1.00
6756;DHT22;3415;51.148;7.014;2022-10-22T14:17:37;18.20;1.00
6756;DHT22;3415;51.148;7.014;2022-10-22T14:20:06;18.20;1.00
6756;DHT22;3415;51.148;7.014;2022-10-22T14:22:33;18.10;1.00
6756;DHT22;3415;51.148;7.014;2022-10-22T14:24:59;18.00;1.00
6756;DHT22;3415;51.148;7.014;2022-10-22T14:27:26;17.80;1.00
6756;DHT22;3415;51.148;7.014;2022-10-22T14:29:53;17.80;1.00
6756;DHT22;3415;51.148;7.014;2022-10-22T14:32:20;18.00;1.00
6756;DHT22;3415;51.148;7.014;2022-10-22T14:34:47;18.00;1.00
6756;DHT22;3415;51.148;7.014;2022-10-22T14:37:16;18.00;1.00
6756;DHT22;3415;51.148;7.014;2022-10-22T14:39:45;18.00;1.00
6756;DHT22;3415;51.148;7.014;2022-10-22T14:42:17;18.00;1.00
6756;DHT22;3415;51.148;7.014;2022-10-22T14:44:44;18.00;1.00
6756;DHT22;3415;51.148;7.014;2022-10-22T14:47:11;18.20;1.00
6756;DHT22;3415;51.148;7.014;2022-10-22T14:49:38;18.10;1.00
6756;DHT22;3415;51.148;7.014;2022-10-22T14:52:05;18.20;1.00
6756;DHT22;3415;51.148;7.014;2022-10-22T14:54:33;18.10;1.00
6756;DHT22;3415;51.148;7.014;2022-10-22T14:57:00;17.90;1.00
6756;DHT22;3415;51.148;7.014;2022-10-22T14:59:27;17.90;1.00
6756;DHT22;3415;51.148;7.014;2022-10-22T15:01:55;17.80;1.00
6756;DHT22;3415;51.148;7.014;2022-10-22T15:04:22;17.80;1.00
6756;DHT22;3415;51.148;7.014;2022-10-22T15:06:50;17.70;1.00
6756;DHT22;3415;51.148;7.014;2022-10-22T15:09:21;17.70;1.00
6756;DHT22;3415;51.148;7.014;2022-10-22T15:11:49;17.50;1.00
6756;DHT22;3415;51.148;7.014;2022-10-22T15:14:16;17.70;1.00
6756;DHT22;3415;51.148;7.014;2022-10-22T15:16:43;17.40;1.00
6756;DHT22;3415;51.148;7.014;2022-10-22T15:19:09;17.40;1.00
6756;DHT22;3415;51.148;7.014;2022-10-22T15:21:36;17.40;1.00
6756;DHT22;3415;51.148;7.014;2022-10-22T15:24:04;17.30;1.00
6756;DHT22;3415;51.148;7.014;2022-10-22T15:26:30;17.30;1.00
6756;DHT22;3415;51.148;7.014;2022-10-22T15:29:01;17.20;1.00
6756;DHT22;3415;51.148;7.014;2022-10-22T15:31:42;17.10;1.00
6756;DHT22;3415;51.148;7.014;2022-10-22T15:34:09;17.00;1.00
6756;DHT22;3415;51.148;7.014;2022-10-22T15:36:36;16.90;1.00
6756;DHT22;3415;51.148;7.014;2022-10-22T15:39:06;16.80;1.00
6756;DHT22;3415;51.148;7.014;2022-10-22T15:41:33;16.70;1.00
6756;DHT22;3415;51.148;7.014;2022-10-22T15:44:01;16.70;1.00
6756;DHT22;3415;51.148;7.014;2022-10-22T15:46:30;16.50;1.00
6756;DHT22;3415;51.148;7.014;2022-10-22T15:48:57;16.60;1.00
6756;DHT22;3415;51.148;7.014;2022-10-22T15:51:24;16.30;1.00
6756;DHT22;3415;51.148;7.014;2022-10-22T15:53:52;16.20;1.00
6756;DHT22;3415;51.148;7.014;2022-10-22T15:56:20;16.20;1.00
6756;DHT22;3415;51.148;7.014;2022-10-22T15:58:48;16.30;1.00
6756;DHT22;3415;51.148;7.014;2022-10-22T16:01:19;16.20;1.00
6756;DHT22;3415;51.148;7.014;2022-10-22T16:03:46;16.20;1.00
6756;DHT22;3415;51.148;7.014;2022-10-22T16:06:13;16.20;1.00
6756;DHT22;3415;51.148;7.014;2022-10-22T16:08:39;16.20;1.00
6756;DHT22;3415;51.148;7.014;2022-10-22T16:11:06;16.20;1.00
6756;DHT22;3415;51.148;7.014;2022-10-22T16:13:33;16.20;1.00
6756;DHT22;3415;51.148;7.014;2022-10-22T16:16:04;16.10;1.00
6756;DHT22;3415;51.148;7.014;2022-10-22T16:18:32;16.00;1.00
6756;DHT22;3415;51.148;7.014;2022-10-22T16:20:59;16.00;1.00
6756;DHT22;3415;51.148;7.014;2022-10-22T16:23:26;16.00;1.00
6756;DHT22;3415;51.148;7.014;2022-10-22T16:25:52;15.90;1.00
6756;DHT22;3415;51.148;7.014;2022-10-22T16:28:19;15.90;1.00
6756;DHT22;3415;51.148;7.014;2022-10-22T16:30:46;15.80;1.00
6756;DHT22;3415;51.148;7.014;2022-10-22T16:33:13;15.70;1.00
6756;DHT22;3415;51.148;7.014;2022-10-22T16:35:41;15.60;1.00
6756;DHT22;3415;51.148;7.014;2022-10-22T16:38:09;15.50;1.00
6756;DHT22;3415;51.148;7.014;2022-10-22T16:40:36;15.40;1.00
6756;DHT22;3415;51.148;7.014;2022-10-22T16:43:04;15.60;1.00
6756;DHT22;3415;51.148;7.014;2022-10-22T16:45:30;15.30;1.00
6756;DHT22;3415;51.148;7.014;2022-10-22T16:47:57;15.10;1.00
6756;DHT22;3415;51.148;7.014;2022-10-22T16:50:24;15.10;1.00
6756;DHT22;3415;51.148;7.014;2022-10-22T16:52:52;15.00;1.00
6756;DHT22;3415;51.148;7.014;2022-10-22T16:55:19;15.00;1.00
6756;DHT22;3415;51.148;7.014;2022-10-22T16:57:49;15.00;1.00
6756;DHT22;3415;51.148;7.014;2022-10-22T17:00:17;15.00;1.00
6756;DHT22;3415;51.148;7.014;2022-10-22T17:02:44;15.00;1.00
6756;DHT22;3415;51.148;7.014;2022-10-22T17:05:10;15.00;1.00
6756;DHT22;3415;51.148;7.014;2022-10-22T17:07:37;15.00;1.00
6756;DHT22;3415;51.148;7.014;2022-10-22T17:10:06;15.00;1.00
6756;DHT22;3415;51.148;7.014;2022-10-22T17:12:34;15.00;1.00
6756;DHT22;3415;51.148;7.014;2022-10-22T17:15:02;15.00;1.00
6756;DHT22;3415;51.148;7.014;2022-10-22T17:17:29;14.90;1.00
6756;DHT22;3415;51.148;7.014;2022-10-22T17:19:56;14.90;1.00
6756;DHT22;3415;51.148;7.014;2022-10-22T17:22:23;14.90;1.00
6756;DHT22;3415;51.148;7.014;2022-10-22T17:25:07;14.90;1.00
6756;DHT22;3415;51.148;7.014;2022-10-22T17:27:34;14.90;1.00
6756;DHT22;3415;51.148;7.014;2022-10-22T17:30:01;14.80;1.00
6756;DHT22;3415;51.148;7.014;2022-10-22T17:32:28;14.70;1.00
6756;DHT22;3415;51.148;7.014;2022-10-22T17:34:55;14.60;1.00
6756;DHT22;3415;51.148;7.014;2022-10-22T17:37:22;14.50;1.00
6756;DHT22;3415;51.148;7.014;2022-10-22T17:39:48;14.50;1.00
6756;DHT22;3415;51.148;7.014;2022-10-22T17:42:17;14.40;1.00
6756;DHT22;3415;51.148;7.014;2022-10-22T17:44:43;14.40;1.00
6756;DHT22;3415;51.148;7.014;2022-10-22T17:47:10;14.40;1.00
6756;DHT22;3415;51.148;7.014;2022-10-22T17:49:37;14.40;1.00
6756;DHT22;3415;51.148;7.014;2022-10-22T17:52:04;14.50;1.00
6756;DHT22;3415;51.148;7.014;2022-10-22T17:54:31;14.40;1.00
6756;DHT22;3415;51.148;7.014;2022-10-22T17:56:58;14.40;1.00
6756;DHT22;3415;51.148;7.014;2022-10-22T17:59:26;14.30;1.00
6756;DHT22;3415;51.148;7.014;2022-10-22T18:01:53;14.40;1.00
6756;DHT22;3415;51.148;7.014;2022-10-22T18:04:20;14.30;1.00
6756;DHT22;3415;51.148;7.014;2022-10-22T18:06:48;14.30;1.00
6756;DHT22;3415;51.148;7.014;2022-10-22T18:09:16;14.30;1.00
6756;DHT22;3415;51.148;7.014;2022-10-22T18:11:44;14.30;1.00
6756;DHT22;3415;51.148;7.014;2022-10-22T18:14:11;14.30;1.00
6756;DHT22;3415;51.148;7.014;2022-10-22T18:16:39;14.40;1.00
6756;DHT22;3415;51.148;7.014;2022-10-22T18:19:06;14.30;1.00
6756;DHT22;3415;51.148;7.014;2022-10-22T18:21:33;14.40;1.00
6756;DHT22;3415;51.148;7.014;2022-10-22T18:24:01;14.60;1.00
6756;DHT22;3415;51.148;7.014;2022-10-22T18:26:28;14.50;1.00
6756;DHT22;3415;51.148;7.014;2022-10-22T18:28:56;14.50;1.00
6756;DHT22;3415;51.148;7.014;2022-10-22T18:31:24;14.50;1.00
6756;DHT22;3415;51.148;7.014;2022-10-22T18:33:54;14.50;1.00
6756;DHT22;3415;51.148;7.014;2022-10-22T18:36:22;14.50;1.00
6756;DHT22;3415;51.148;7.014;2022-10-22T18:38:50;14.40;1.00
6756;DHT22;3415;51.148;7.014;2022-10-22T18:41:18;14.50;1.00
6756;DHT22;3415;51.148;7.014;2022-10-22T18:43:49;14.30;1.00
6756;DHT22;3415;51.148;7.014;2022-10-22T18:46:16;14.30;1.00
6756;DHT22;3415;51.148;7.014;2022-10-22T18:48:43;14.20;1.00
6756;DHT22;3415;51.148;7.014;2022-10-22T18:51:13;14.20;1.00
6756;DHT22;3415;51.148;7.014;2022-10-22T18:53:41;14.30;1.00
6756;DHT22;3415;51.148;7.014;2022-10-22T18:56:09;14.10;1.00
6756;DHT22;3415;51.148;7.014;2022-10-22T18:58:36;14.10;1.00
6756;DHT22;3415;51.148;7.014;2022-10-22T19:01:07;14.00;1.00
6756;DHT22;3415;51.148;7.014;2022-10-22T19:03:34;14.00;1.00
6756;DHT22;3415;51.148;7.014;2022-10-22T19:06:01;14.00;1.00
6756;DHT22;3415;51.148;7.014;2022-10-22T19:08:30;14.00;1.00
6756;DHT22;3415;51.148;7.014;2022-10-22T19:10:56;14.10;1.00
6756;DHT22;3415;51.148;7.014;2022-10-22T19:13:23;14.10;1.00
6756;DHT22;3415;51.148;7.014;2022-10-22T19:15:51;14.00;1.00
6756;DHT22;3415;51.148;7.014;2022-10-22T19:18:18;14.00;1.00
6756;DHT22;3415;51.148;7.014;2022-10-22T19:20:46;13.90;1.00
6756;DHT22;3415;51.148;7.014;2022-10-22T19:23:13;14.00;1.00
6756;DHT22;3415;51.148;7.014;2022-10-22T19:25:42;13.90;1.00
6756;DHT22;3415;51.148;7.014;2022-10-22T19:28:08;13.90;1.00
6756;DHT22;3415;51.148;7.014;2022-10-22T19:30:39;13.80;1.00
6756;DHT22;3415;51.148;7.014;2022-10-22T19:33:09;13.80;1.00
6756;DHT22;3415;51.148;7.014;2022-10-22T19:35:35;13.80;1.00
6756;DHT22;3415;51.148;7.014;2022-10-22T19:38:02;16.70;1.00
6756;DHT22;3415;51.148;7.014;2022-10-22T19:40:29;13.70;1.00
6756;DHT22;3415;51.148;7.014;2022-10-22T19:42:57;13.70;1.00
6756;DHT22;3415;51.148;7.014;2022-10-22T19:45:24;13.70;1.00
6756;DHT22;3415;51.148;7.014;2022-10-22T19:47:51;13.70;1.00
6756;DHT22;3415;51.148;7.014;2022-10-22T19:50:18;13.70;1.00
6756;DHT22;3415;51.148;7.014;2022-10-22T19:52:45;13.70;1.00
6756;DHT22;3415;51.148;7.014;2022-10-22T19:55:11;13.70;1.00
6756;DHT22;3415;51.148;7.014;2022-10-22T19:57:39;13.70;1.00
6756;DHT22;3415;51.148;7.014;2022-10-22T20:00:08;13.70;1.00
6756;DHT22;3415;51.148;7.014;2022-10-22T20:02:35;13.70;1.00
6756;DHT22;3415;51.148;7.014;2022-10-22T20:05:03;13.70;1.00
6756;DHT22;3415;51.148;7.014;2022-10-22T20:07:30;13.70;1.00
6756;DHT22;3415;51.148;7.014;2022-10-22T20:09:57;13.70;1.00
6756;DHT22;3415;51.148;7.014;2022-10-22T20:12:24;13.80;1.00
6756;DHT22;3415;51.148;7.014;2022-10-22T20:14:51;13.90;1.00
6756;DHT22;3415;51.148;7.014;2022-10-22T20:17:19;13.90;1.00
6756;DHT22;3415;51.148;7.014;2022-10-22T20:19:46;13.90;1.00
6756;DHT22;3415;51.148;7.014;2022-10-22T20:22:13;13.90;1.00
6756;DHT22;3415;51.148;7.014;2022-10-22T20:24:40;14.00;1.00
6756;DHT22;3415;51.148;7.014;2022-10-22T20:27:06;14.00;1.00
6756;DHT22;3415;51.148;7.014;2022-10-22T20:29:33;13.90;1.00
6756;DHT22;3415;51.148;7.014;2022-10-22T20:32:00;13.90;1.00
6756;DHT22;3415;51.148;7.014;2022-10-22T20:34:28;13.90;1.00
6756;DHT22;3415;51.148;7.014;2022-10-22T20:36:55;13.90;1.00
6756;DHT22;3415;51.148;7.014;2022-10-22T20:39:22;13.90;1.00
6756;DHT22;3415;51.148;7.014;2022-10-22T20:41:49;13.90;1.00
6756;DHT22;3415;51.148;7.014;2022-10-22T20:44:16;13.90;1.00
6756;DHT22;3415;51.148;7.014;2022-10-22T20:46:44;13.90;1.00
6756;DHT22;3415;51.148;7.014;2022-10-22T20:49:13;14.00;1.00
6756;DHT22;3415;51.148;7.014;2022-10-22T20:51:42;13.90;1.00
6756;DHT22;3415;51.148;7.014;2022-10-22T20:54:09;14.00;1.00
6756;DHT22;3415;51.148;7.014;2022-10-22T20:56:37;13.90;1.00
6756;DHT22;3415;51.148;7.014;2022-10-22T20:59:05;13.90;1.00
6756;DHT22;3415;51.148;7.014;2022-10-22T21:01:35;13.90;1.00
6756;DHT22;3415;51.148;7.014;2022-10-22T21:04:02;14.00;1.00
6756;DHT22;3415;51.148;7.014;2022-10-22T21:06:29;14.00;1.00
6756;DHT22;3415;51.148;7.014;2022-10-22T21:08:57;14.10;1.00
6756;DHT22;3415;51.148;7.014;2022-10-22T21:11:24;14.10;1.00
6756;DHT22;3415;51.148;7.014;2022-10-22T21:13:51;14.10;1.00
6756;DHT22;3415;51.148;7.014;2022-10-22T21:16:18;14.10;1.00
6756;DHT22;3415;51.148;7.014;2022-10-22T21:18:45;14.10;1.00
6756;DHT22;3415;51.148;7.014;2022-10-22T21:21:13;14.00;1.00
6756;DHT22;3415;51.148;7.014;2022-10-22T21:23:41;14.00;1.00
6756;DHT22;3415;51.148;7.014;2022-10-22T21:26:10;14.00;1.00
6756;DHT22;3415;51.148;7.014;2022-10-22T21:28:37;14.00;1.00
6756;DHT22;3415;51.148;7.014;2022-10-22T21:31:08;14.00;1.00
6756;DHT22;3415;51.148;7.014;2022-10-22T21:33:36;14.00;1.00
6756;DHT22;3415;51.148;7.014;2022-10-22T21:36:03;14.00;1.00